Time;durP1;ratioP1;P1;durP2;ratioP2;P2;SDS_P1;SDS_P2;PMS_P1;PMS_P2;Temp;Humidity;BMP_temperature;BMP_pressure;BME280_temperature;BME280_humidity;BME280_pressure;Samples;Min_cycle;Max_cycle;Signal;HPM_P1;HPM_P2
2022/04/24 00:00:37;;;;;;;;;;;21.40;37.20;;;;;;5071777;28;19913;-60
2022/04/24 00:03:02;;;;;;;;;;;21.40;37.10;;;;;;5074123;28;19971;-60
2022/04/24 00:05:28;;;;;;;;;;;21.30;37.00;;;;;;5073099;28;19916;-61
2022/04/24 00:07:53;;;;;;;;;;;21.40;37.00;;;;;;5073444;28;19912;-60
2022/04/24 00:10:19;;;;;;;;;;;21.30;37.00;;;;;;5071747;28;20015;-60
2022/04/24 00:12:44;;;;;;;;;;;21.30;37.00;;;;;;5071856;28;19974;-60
2022/04/24 00:15:10;;;;;;;;;;;21.30;37.20;;;;;;5073226;28;19920;-60
2022/04/24 00:17:36;;;;;;;;;;;21.30;37.20;;;;;;5072374;28;20176;-61
2022/04/24 00:20:02;;;;;;;;;;;21.30;37.10;;;;;;5073295;28;19952;-61
2022/04/24 00:22:27;;;;;;;;;;;21.30;37.00;;;;;;5072843;28;19963;-61
2022/04/24 00:24:52;;;;;;;;;;;21.30;37.20;;;;;;5071771;28;19916;-61
2022/04/24 00:27:18;;;;;;;;;;;21.20;37.10;;;;;;5072231;28;20333;-61
2022/04/24 00:29:43;;;;;;;;;;;21.20;37.10;;;;;;5071724;28;19978;-61
2022/04/24 00:32:09;;;;;;;;;;;21.30;37.10;;;;;;5074625;28;19913;-60
2022/04/24 00:34:35;;;;;;;;;;;21.20;37.10;;;;;;5072518;28;19921;-60
2022/04/24 00:37:00;;;;;;;;;;;21.20;37.10;;;;;;5072469;28;19923;-60
2022/04/24 00:39:26;;;;;;;;;;;21.20;37.10;;;;;;5070592;28;19917;-60
2022/04/24 00:41:52;;;;;;;;;;;21.20;37.10;;;;;;5071197;28;19913;-60
2022/04/24 00:44:17;;;;;;;;;;;21.20;37.10;;;;;;5071774;28;19920;-60
2022/04/24 00:46:45;;;;;;;;;;;21.20;37.20;;;;;;5071769;28;19925;-60
2022/04/24 00:49:12;;;;;;;;;;;21.20;37.20;;;;;;5071636;28;19913;-60
2022/04/24 00:51:40;;;;;;;;;;;21.10;37.10;;;;;;5072965;28;19912;-61
2022/04/24 00:54:06;;;;;;;;;;;21.20;37.20;;;;;;5071737;28;20011;-60
2022/04/24 00:56:32;;;;;;;;;;;21.10;37.10;;;;;;5073781;28;19915;-61
2022/04/24 00:58:58;;;;;;;;;;;21.10;37.10;;;;;;5071168;28;19913;-61
2022/04/24 01:01:24;;;;;;;;;;;21.10;37.10;;;;;;5069943;28;20034;-61
2022/04/24 01:03:49;;;;;;;;;;;21.10;37.10;;;;;;5071132;28;19919;-61
2022/04/24 01:06:15;;;;;;;;;;;21.10;37.10;;;;;;5072352;28;19920;-61
2022/04/24 01:08:40;;;;;;;;;;;21.10;37.10;;;;;;5072065;28;20015;-61
2022/04/24 01:11:05;;;;;;;;;;;21.10;37.10;;;;;;5072670;28;19916;-61
2022/04/24 01:13:31;;;;;;;;;;;21.10;37.30;;;;;;5070002;28;19919;-60
2022/04/24 01:15:57;;;;;;;;;;;21.00;37.10;;;;;;5071076;28;20368;-60
2022/04/24 01:18:23;;;;;;;;;;;21.00;37.20;;;;;;5072317;28;20308;-60
2022/04/24 01:20:48;;;;;;;;;;;21.00;37.10;;;;;;5071545;28;19912;-60
2022/04/24 01:23:14;;;;;;;;;;;20.90;37.20;;;;;;5072045;28;20360;-61
2022/04/24 01:25:39;;;;;;;;;;;20.90;37.20;;;;;;5071477;28;19916;-60
2022/04/24 01:28:08;;;;;;;;;;;20.90;37.40;;;;;;5071003;28;19961;-60
2022/04/24 01:30:34;;;;;;;;;;;20.80;37.50;;;;;;5072423;28;19912;-60
2022/04/24 01:32:59;;;;;;;;;;;20.80;37.60;;;;;;5070867;28;19947;-60
2022/04/24 01:35:25;;;;;;;;;;;20.80;37.70;;;;;;5070435;28;19991;-60
2022/04/24 01:37:50;;;;;;;;;;;20.70;37.60;;;;;;5070625;28;19920;-61
2022/04/24 01:40:16;;;;;;;;;;;20.70;37.70;;;;;;5067748;28;19923;-61
2022/04/24 01:42:41;;;;;;;;;;;20.60;37.60;;;;;;5070718;28;19912;-61
2022/04/24 01:45:07;;;;;;;;;;;20.70;37.70;;;;;;5071345;28;19966;-61
2022/04/24 01:47:32;;;;;;;;;;;20.70;37.70;;;;;;5072596;28;19917;-61
2022/04/24 01:49:58;;;;;;;;;;;20.70;37.60;;;;;;5070975;28;20512;-61
2022/04/24 01:52:24;;;;;;;;;;;20.70;37.40;;;;;;5071047;28;19923;-61
2022/04/24 01:54:49;;;;;;;;;;;20.80;37.50;;;;;;5069359;28;20266;-60
2022/04/24 01:57:15;;;;;;;;;;;20.80;37.40;;;;;;5070985;28;19958;-60
2022/04/24 01:59:40;;;;;;;;;;;20.80;37.40;;;;;;5070585;28;19912;-61
2022/04/24 02:02:06;;;;;;;;;;;20.90;37.40;;;;;;5069922;28;20028;-60
2022/04/24 02:04:31;;;;;;;;;;;20.90;37.30;;;;;;5071368;28;19917;-61
2022/04/24 02:06:56;;;;;;;;;;;20.90;37.30;;;;;;5071820;28;19912;-61
2022/04/24 02:09:22;;;;;;;;;;;21.00;37.30;;;;;;5069374;28;19917;-61
2022/04/24 02:11:47;;;;;;;;;;;20.90;37.10;;;;;;5071551;28;20062;-60
2022/04/24 02:14:13;;;;;;;;;;;20.90;37.20;;;;;;5070019;28;19912;-61
2022/04/24 02:16:38;;;;;;;;;;;20.90;37.20;;;;;;5069920;28;19916;-61
2022/04/24 02:19:04;;;;;;;;;;;20.90;37.20;;;;;;5070487;28;19916;-61
2022/04/24 02:21:29;;;;;;;;;;;20.90;37.40;;;;;;5070953;28;20365;-61
2022/04/24 02:23:55;;;;;;;;;;;20.80;37.40;;;;;;5070556;28;19913;-61
2022/04/24 02:26:20;;;;;;;;;;;20.80;37.40;;;;;;5071292;28;19951;-61
2022/04/24 02:28:46;;;;;;;;;;;20.80;37.50;;;;;;5065708;28;20003;-61
2022/04/24 02:31:11;;;;;;;;;;;20.80;37.60;;;;;;5071260;28;20395;-60
2022/04/24 02:33:36;;;;;;;;;;;20.70;37.50;;;;;;5069228;28;20291;-61
2022/04/24 02:36:02;;;;;;;;;;;20.80;37.60;;;;;;5071242;28;19940;-61
2022/04/24 02:38:28;;;;;;;;;;;20.70;37.60;;;;;;5069744;28;19951;-61
2022/04/24 02:40:54;;;;;;;;;;;20.70;37.60;;;;;;5069453;28;19917;-60
2022/04/24 02:43:19;;;;;;;;;;;20.70;37.50;;;;;;5069609;28;20327;-61
2022/04/24 02:45:45;;;;;;;;;;;20.70;37.60;;;;;;5060339;28;20011;-60
2022/04/24 02:48:10;;;;;;;;;;;20.70;37.60;;;;;;5070972;28;19912;-60
2022/04/24 02:50:36;;;;;;;;;;;20.70;37.60;;;;;;5067160;28;19921;-60
2022/04/24 02:53:01;;;;;;;;;;;20.70;37.50;;;;;;5071871;28;19908;-61
2022/04/24 02:55:27;;;;;;;;;;;20.70;37.50;;;;;;5070643;28;20006;-61
2022/04/24 02:57:52;;;;;;;;;;;20.70;38.10;;;;;;5072095;28;20353;-61
2022/04/24 03:00:21;;;;;;;;;;;20.70;37.60;;;;;;5067356;28;19957;-61
2022/04/24 03:02:46;;;;;;;;;;;20.60;37.50;;;;;;5060966;28;19960;-61
2022/04/24 03:05:12;;;;;;;;;;;20.60;37.60;;;;;;5063581;28;19974;-61
2022/04/24 03:07:38;;;;;;;;;;;20.60;37.60;;;;;;5071121;28;19912;-61
2022/04/24 03:10:03;;;;;;;;;;;20.60;37.70;;;;;;5068899;28;20373;-60
2022/04/24 03:12:29;;;;;;;;;;;20.60;37.70;;;;;;5070693;28;19916;-61
2022/04/24 03:14:55;;;;;;;;;;;20.60;37.70;;;;;;5069086;28;19916;-59
2022/04/24 03:17:20;;;;;;;;;;;20.60;37.70;;;;;;5070243;28;20025;-60
2022/04/24 03:19:46;;;;;;;;;;;20.60;37.70;;;;;;5070410;28;20061;-61
2022/04/24 03:22:11;;;;;;;;;;;20.60;37.70;;;;;;5070886;28;19981;-60
2022/04/24 03:24:37;;;;;;;;;;;20.50;37.70;;;;;;5070175;28;19923;-60
2022/04/24 03:27:03;;;;;;;;;;;20.60;37.80;;;;;;5071017;28;19920;-60
2022/04/24 03:29:29;;;;;;;;;;;20.60;37.80;;;;;;5069119;28;20311;-61
2022/04/24 03:31:54;;;;;;;;;;;20.60;37.80;;;;;;5069488;28;19923;-61
2022/04/24 03:34:20;;;;;;;;;;;20.60;37.80;;;;;;5070691;28;19966;-61
2022/04/24 03:36:46;;;;;;;;;;;20.60;37.70;;;;;;5072858;28;19974;-61
2022/04/24 03:39:12;;;;;;;;;;;20.60;37.80;;;;;;5072330;28;19919;-61
2022/04/24 03:41:37;;;;;;;;;;;20.60;37.90;;;;;;5073582;28;20280;-61
2022/04/24 03:44:03;;;;;;;;;;;20.50;37.70;;;;;;5072406;28;20467;-61
2022/04/24 03:46:28;;;;;;;;;;;20.60;38.40;;;;;;5075078;28;19921;-60
2022/04/24 03:48:54;;;;;;;;;;;20.50;37.70;;;;;;5074757;28;19964;-60
2022/04/24 03:51:19;;;;;;;;;;;20.50;37.70;;;;;;5071759;28;19917;-60
2022/04/24 03:53:45;;;;;;;;;;;20.50;37.70;;;;;;5072428;28;19917;-61
2022/04/24 03:56:11;;;;;;;;;;;20.50;37.60;;;;;;5075191;28;19908;-61
2022/04/24 03:58:37;;;;;;;;;;;20.50;37.60;;;;;;5071365;28;19916;-61
2022/04/24 04:01:03;;;;;;;;;;;20.50;37.70;;;;;;5073954;28;19912;-61
2022/04/24 04:03:28;;;;;;;;;;;20.50;37.60;;;;;;5073225;28;19923;-61
2022/04/24 04:05:53;;;;;;;;;;;20.50;37.60;;;;;;5072577;28;20007;-61
2022/04/24 04:08:19;;;;;;;;;;;20.50;37.70;;;;;;5072696;28;19920;-61
2022/04/24 04:10:44;;;;;;;;;;;20.50;37.70;;;;;;5070798;28;19917;-61
2022/04/24 04:13:10;;;;;;;;;;;20.50;37.70;;;;;;5073103;28;19951;-61
2022/04/24 04:15:36;;;;;;;;;;;20.50;37.70;;;;;;5073270;28;19913;-61
2022/04/24 04:18:01;;;;;;;;;;;20.40;37.60;;;;;;5073316;28;19912;-61
2022/04/24 04:20:26;;;;;;;;;;;20.50;37.70;;;;;;5072100;28;20434;-60
2022/04/24 04:22:52;;;;;;;;;;;20.50;37.60;;;;;;5073673;28;19917;-60
2022/04/24 04:25:21;;;;;;;;;;;20.50;37.60;;;;;;5071236;28;19917;-61
2022/04/24 04:27:47;;;;;;;;;;;20.50;37.60;;;;;;5069758;28;19958;-60
2022/04/24 04:30:12;;;;;;;;;;;20.50;37.60;;;;;;5071816;28;19998;-60
2022/04/24 04:32:38;;;;;;;;;;;20.50;37.60;;;;;;5073484;28;19909;-60
2022/04/24 04:35:05;;;;;;;;;;;20.50;37.60;;;;;;5073284;28;19959;-60
2022/04/24 04:37:31;;;;;;;;;;;20.50;37.60;;;;;;5073459;28;19958;-60
2022/04/24 04:39:57;;;;;;;;;;;20.50;37.60;;;;;;5070964;28;19916;-61
2022/04/24 04:42:22;;;;;;;;;;;20.40;37.60;;;;;;5070843;28;19913;-60
2022/04/24 04:44:48;;;;;;;;;;;20.40;37.50;;;;;;5072400;28;19971;-60
2022/04/24 04:47:13;;;;;;;;;;;20.50;37.60;;;;;;5071678;28;19928;-61
2022/04/24 04:49:40;;;;;;;;;;;20.50;37.60;;;;;;5070167;28;21814;-61
2022/04/24 04:52:05;;;;;;;;;;;20.50;37.60;;;;;;5073411;28;20359;-61
2022/04/24 04:54:30;;;;;;;;;;;20.40;37.60;;;;;;5071082;28;20262;-61
2022/04/24 04:56:56;;;;;;;;;;;20.40;37.60;;;;;;5072100;28;19912;-61
2022/04/24 04:59:21;;;;;;;;;;;20.40;37.60;;;;;;5073024;28;19909;-61
2022/04/24 05:01:47;;;;;;;;;;;20.40;37.60;;;;;;5067190;28;20007;-61
2022/04/24 05:04:12;;;;;;;;;;;20.40;37.60;;;;;;5071408;28;20396;-60
2022/04/24 05:06:38;;;;;;;;;;;20.40;37.70;;;;;;5070745;28;19920;-61
2022/04/24 05:09:04;;;;;;;;;;;20.40;37.70;;;;;;5070713;28;19978;-61
2022/04/24 05:11:30;;;;;;;;;;;20.40;37.70;;;;;;5072971;28;19908;-61
2022/04/24 05:13:55;;;;;;;;;;;20.40;37.60;;;;;;5071689;28;19913;-61
2022/04/24 05:16:21;;;;;;;;;;;20.40;37.70;;;;;;5072527;28;19912;-60
2022/04/24 05:18:46;;;;;;;;;;;20.40;37.70;;;;;;5070861;28;20007;-61
2022/04/24 05:21:11;;;;;;;;;;;20.40;37.70;;;;;;5070958;28;19959;-61
2022/04/24 05:23:37;;;;;;;;;;;20.40;37.70;;;;;;5072118;28;19916;-61
2022/04/24 05:26:02;;;;;;;;;;;20.40;38.40;;;;;;5070990;28;19916;-61
2022/04/24 05:28:28;;;;;;;;;;;20.40;37.70;;;;;;5069203;28;19913;-61
2022/04/24 05:30:54;;;;;;;;;;;20.40;37.70;;;;;;5072277;28;19923;-60
2022/04/24 05:33:19;;;;;;;;;;;20.40;37.70;;;;;;5070880;28;20254;-60
2022/04/24 05:35:45;;;;;;;;;;;20.40;38.00;;;;;;5072118;28;19992;-60
2022/04/24 05:38:11;;;;;;;;;;;20.40;37.80;;;;;;5071342;28;19963;-61
2022/04/24 05:40:37;;;;;;;;;;;20.40;37.80;;;;;;5070609;28;19916;-60
2022/04/24 05:43:02;;;;;;;;;;;20.40;37.80;;;;;;5071192;28;19974;-60
2022/04/24 05:45:28;;;;;;;;;;;20.40;37.80;;;;;;5071345;28;20385;-60
2022/04/24 05:47:56;;;;;;;;;;;20.40;37.90;;;;;;5070358;28;20381;-60
2022/04/24 05:50:23;;;;;;;;;;;20.30;37.90;;;;;;5070754;28;19912;-60
2022/04/24 05:52:48;;;;;;;;;;;20.30;37.90;;;;;;5072523;28;20276;-60
2022/04/24 05:55:14;;;;;;;;;;;20.30;37.90;;;;;;5067570;28;19916;-60
2022/04/24 05:57:39;;;;;;;;;;;20.30;37.80;;;;;;5071240;28;19912;-61
2022/04/24 06:00:05;;;;;;;;;;;20.30;37.90;;;;;;5070392;28;20373;-60
2022/04/24 06:02:30;;;;;;;;;;;20.30;37.90;;;;;;5070193;28;19912;-61
2022/04/24 06:04:56;;;;;;;;;;;20.30;38.00;;;;;;5071273;28;19967;-61
2022/04/24 06:07:23;;;;;;;;;;;20.30;37.90;;;;;;5069888;28;19912;-61
2022/04/24 06:09:49;;;;;;;;;;;20.40;37.90;;;;;;5070023;28;19916;-61
2022/04/24 06:12:14;;;;;;;;;;;20.40;37.80;;;;;;5068051;28;19970;-61
2022/04/24 06:14:40;;;;;;;;;;;20.40;38.00;;;;;;5071098;28;20019;-61
2022/04/24 06:17:05;;;;;;;;;;;20.30;38.00;;;;;;5069144;28;19959;-59
2022/04/24 06:19:31;;;;;;;;;;;20.40;38.00;;;;;;5070956;28;19935;-60
2022/04/24 06:21:57;;;;;;;;;;;20.40;38.00;;;;;;5071112;28;19966;-60
2022/04/24 06:24:22;;;;;;;;;;;20.40;38.00;;;;;;5070213;28;19917;-60
2022/04/24 06:26:47;;;;;;;;;;;20.40;38.10;;;;;;5070153;28;20277;-60
2022/04/24 06:29:13;;;;;;;;;;;20.40;38.00;;;;;;5065362;28;19920;-60
2022/04/24 06:31:39;;;;;;;;;;;20.30;38.00;;;;;;5068348;28;19923;-60
2022/04/24 06:34:04;;;;;;;;;;;20.40;38.00;;;;;;5070338;28;19923;-60
2022/04/24 06:36:30;;;;;;;;;;;20.40;38.00;;;;;;5071932;28;19915;-60
2022/04/24 06:38:55;;;;;;;;;;;20.40;38.10;;;;;;5069181;28;20284;-61
2022/04/24 06:41:21;;;;;;;;;;;20.40;38.10;;;;;;5070628;28;19912;-61
2022/04/24 06:43:46;;;;;;;;;;;20.40;38.10;;;;;;5068946;28;19928;-61
2022/04/24 06:46:12;;;;;;;;;;;20.40;38.10;;;;;;5068007;28;19916;-61
2022/04/24 06:48:37;;;;;;;;;;;20.40;38.10;;;;;;5069834;28;19919;-60
2022/04/24 06:51:03;;;;;;;;;;;20.40;38.10;;;;;;5070251;28;19962;-61
2022/04/24 06:53:29;;;;;;;;;;;20.40;38.10;;;;;;5070915;28;19997;-61
2022/04/24 06:55:56;;;;;;;;;;;20.40;38.20;;;;;;5069045;28;19939;-60
2022/04/24 06:58:21;;;;;;;;;;;20.30;38.20;;;;;;5068264;28;19913;-61
2022/04/24 07:00:47;;;;;;;;;;;20.30;38.20;;;;;;5068708;28;20477;-60
2022/04/24 07:03:13;;;;;;;;;;;20.30;38.20;;;;;;5070370;28;19913;-60
2022/04/24 07:05:38;;;;;;;;;;;20.40;38.20;;;;;;5068382;28;20394;-60
2022/04/24 07:08:04;;;;;;;;;;;20.40;38.20;;;;;;5069616;28;20010;-60
2022/04/24 07:10:29;;;;;;;;;;;20.30;38.10;;;;;;5071203;28;19959;-61
2022/04/24 07:12:55;;;;;;;;;;;20.30;38.30;;;;;;5073366;28;19913;-60
2022/04/24 07:15:21;;;;;;;;;;;20.30;38.30;;;;;;5074844;28;19909;-60
2022/04/24 07:17:47;;;;;;;;;;;20.30;38.30;;;;;;5069239;28;19913;-61
2022/04/24 07:20:13;;;;;;;;;;;20.30;38.30;;;;;;5067278;28;19912;-61
2022/04/24 07:22:51;;;;;;;;;;;20.30;38.30;;;;;;5075431;28;19908;-61
2022/04/24 07:25:17;;;;;;;;;;;20.30;38.30;;;;;;5073355;28;19920;-61
2022/04/24 07:27:43;;;;;;;;;;;20.30;38.40;;;;;;5071285;28;20011;-60
2022/04/24 07:30:14;;;;;;;;;;;20.30;38.40;;;;;;5074727;28;20019;-61
2022/04/24 07:32:40;;;;;;;;;;;20.30;38.40;;;;;;5072505;28;20327;-60
2022/04/24 07:35:07;;;;;;;;;;;20.30;38.40;;;;;;5055180;28;19958;-60
2022/04/24 07:37:32;;;;;;;;;;;20.40;38.50;;;;;;5066728;28;19920;-61
2022/04/24 07:39:58;;;;;;;;;;;20.30;38.40;;;;;;5073027;28;19912;-60
2022/04/24 07:42:23;;;;;;;;;;;20.30;38.50;;;;;;5075377;28;19919;-60
2022/04/24 07:44:51;;;;;;;;;;;20.40;38.60;;;;;;5074275;28;20415;-60
2022/04/24 07:47:16;;;;;;;;;;;20.40;38.40;;;;;;5074908;28;19913;-60
2022/04/24 07:49:42;;;;;;;;;;;20.40;38.40;;;;;;5070022;28;19916;-60
2022/04/24 07:52:07;;;;;;;;;;;20.40;38.40;;;;;;5069404;28;19913;-60
2022/04/24 07:54:33;;;;;;;;;;;20.40;38.40;;;;;;5074351;28;19909;-61
2022/04/24 07:56:58;;;;;;;;;;;20.40;38.40;;;;;;5073634;28;20477;-61
2022/04/24 07:59:23;;;;;;;;;;;20.40;38.40;;;;;;5074134;28;19956;-60
2022/04/24 08:01:51;;;;;;;;;;;20.40;38.50;;;;;;5074821;28;19913;-61
2022/04/24 08:04:17;;;;;;;;;;;20.40;38.40;;;;;;5074769;28;20352;-61
2022/04/24 08:06:42;;;;;;;;;;;20.40;38.40;;;;;;5074605;28;19958;-61
2022/04/24 08:09:08;;;;;;;;;;;20.40;38.50;;;;;;5072867;28;19919;-61
2022/04/24 08:11:33;;;;;;;;;;;20.40;38.50;;;;;;5074629;28;20400;-61
2022/04/24 08:13:59;;;;;;;;;;;20.40;38.50;;;;;;5074029;28;20360;-60
2022/04/24 08:16:26;;;;;;;;;;;20.40;38.40;;;;;;5074442;28;20365;-60
2022/04/24 08:18:52;;;;;;;;;;;20.50;38.40;;;;;;5074458;28;20070;-60
2022/04/24 08:21:17;;;;;;;;;;;20.40;38.40;;;;;;5073491;28;19958;-60
2022/04/24 08:23:43;;;;;;;;;;;20.50;38.50;;;;;;5073623;28;19961;-60
2022/04/24 08:26:10;;;;;;;;;;;20.50;38.50;;;;;;5074500;28;20001;-60
2022/04/24 08:28:35;;;;;;;;;;;20.50;38.30;;;;;;5073868;28;19933;-60
2022/04/24 08:31:01;;;;;;;;;;;20.50;38.40;;;;;;5074034;28;19908;-61
2022/04/24 08:33:26;;;;;;;;;;;20.50;38.40;;;;;;5073992;28;19912;-61
2022/04/24 08:35:52;;;;;;;;;;;20.40;38.40;;;;;;5074101;28;19908;-60
2022/04/24 08:38:18;;;;;;;;;;;20.40;38.40;;;;;;5070639;28;19963;-60
2022/04/24 08:40:44;;;;;;;;;;;20.40;38.50;;;;;;5069546;28;19916;-61
2022/04/24 08:43:09;;;;;;;;;;;20.40;38.50;;;;;;5071966;28;20335;-61
2022/04/24 08:45:35;;;;;;;;;;;20.40;38.60;;;;;;5071876;28;20035;-61
2022/04/24 08:48:02;;;;;;;;;;;20.40;38.50;;;;;;5072559;28;19984;-60
2022/04/24 08:50:28;;;;;;;;;;;20.40;38.50;;;;;;5073804;28;19963;-61
2022/04/24 08:52:55;;;;;;;;;;;20.40;38.50;;;;;;5055518;28;20530;-61
2022/04/24 08:55:20;;;;;;;;;;;20.40;38.60;;;;;;5071930;28;19912;-61
2022/04/24 08:57:46;;;;;;;;;;;20.50;38.70;;;;;;5072813;28;20580;-61
2022/04/24 09:00:11;;;;;;;;;;;20.50;38.80;;;;;;5071139;28;20276;-60
2022/04/24 09:02:37;;;;;;;;;;;20.50;38.80;;;;;;5073409;28;19923;-60
2022/04/24 09:05:04;;;;;;;;;;;20.60;38.70;;;;;;5072992;28;20322;-60
2022/04/24 09:07:30;;;;;;;;;;;20.60;38.60;;;;;;5067967;28;19916;-60
2022/04/24 09:09:56;;;;;;;;;;;20.60;38.80;;;;;;5069619;28;19916;-61
2022/04/24 09:12:25;;;;;;;;;;;20.60;38.40;;;;;;5070272;28;19919;-60
2022/04/24 09:14:51;;;;;;;;;;;20.60;38.30;;;;;;5069464;28;19920;-60
2022/04/24 09:17:17;;;;;;;;;;;20.60;38.30;;;;;;5070812;28;19953;-61
2022/04/24 09:19:43;;;;;;;;;;;20.60;38.30;;;;;;5061087;28;19913;-61
2022/04/24 09:22:09;;;;;;;;;;;20.60;38.20;;;;;;5070556;28;19923;-61
2022/04/24 09:24:41;;;;;;;;;;;20.70;38.10;;;;;;5072107;28;19995;-61
2022/04/24 09:27:06;;;;;;;;;;;20.70;37.80;;;;;;5071924;28;19909;-61
2022/04/24 09:29:32;;;;;;;;;;;20.70;37.60;;;;;;5072561;28;19915;-61
2022/04/24 09:31:57;;;;;;;;;;;20.70;37.50;;;;;;5073008;28;19912;-60
2022/04/24 09:34:27;;;;;;;;;;;20.70;37.50;;;;;;5072595;28;20368;-61
2022/04/24 09:37:00;;;;;;;;;;;20.80;37.40;;;;;;5069948;28;20024;-61
2022/04/24 09:39:26;;;;;;;;;;;20.80;37.30;;;;;;5072392;28;19919;-61
2022/04/24 09:42:00;;;;;;;;;;;20.80;37.30;;;;;;5071608;28;20280;-61
2022/04/24 09:44:25;;;;;;;;;;;20.80;37.10;;;;;;5068537;28;19920;-61
2022/04/24 09:46:58;;;;;;;;;;;20.80;37.00;;;;;;5072874;28;19912;-61
2022/04/24 09:49:23;;;;;;;;;;;20.80;36.90;;;;;;5072131;28;19960;-60
2022/04/24 09:51:49;;;;;;;;;;;20.80;36.80;;;;;;5071007;28;19959;-61
2022/04/24 09:54:14;;;;;;;;;;;20.80;36.80;;;;;;5067909;28;19927;-61
2022/04/24 09:56:40;;;;;;;;;;;20.80;36.80;;;;;;5070033;28;19912;-61
2022/04/24 09:59:05;;;;;;;;;;;20.80;37.00;;;;;;5077029;28;19913;-61
2022/04/24 10:01:32;;;;;;;;;;;20.80;37.10;;;;;;5074901;28;19999;-61
2022/04/24 10:03:58;;;;;;;;;;;20.80;36.90;;;;;;5069775;28;19916;-61
2022/04/24 10:06:24;;;;;;;;;;;20.70;37.00;;;;;;5070981;28;19916;-61
2022/04/24 10:08:49;;;;;;;;;;;20.80;37.10;;;;;;5072266;28;19961;-61
2022/04/24 10:11:15;;;;;;;;;;;20.80;36.90;;;;;;5085632;28;19913;-61
2022/04/24 10:13:41;;;;;;;;;;;20.70;36.70;;;;;;5070642;28;20389;-61
2022/04/24 10:16:25;;;;;;;;;;;20.80;36.60;;;;;;5066779;28;19961;-61
2022/04/24 10:19:09;;;;;;;;;;;20.80;37.30;;;;;;5069504;28;19913;-61
2022/04/24 10:21:38;;;;;;;;;;;20.80;36.60;;;;;;5066591;28;19912;-62
2022/04/24 10:24:07;;;;;;;;;;;20.80;36.60;;;;;;5050210;28;19951;-61
2022/04/24 10:26:32;;;;;;;;;;;20.80;36.60;;;;;;5066423;28;19916;-62
2022/04/24 10:29:02;;;;;;;;;;;20.80;36.70;;;;;;5059568;28;19917;-61
2022/04/24 10:31:27;;;;;;;;;;;20.80;36.80;;;;;;5066921;28;20439;-61
2022/04/24 10:33:54;;;;;;;;;;;20.80;36.80;;;;;;5070290;28;20003;-61
2022/04/24 10:36:20;;;;;;;;;;;20.80;36.80;;;;;;5069757;28;19999;-61
2022/04/24 10:38:47;;;;;;;;;;;20.80;36.70;;;;;;5064103;28;20476;-61
2022/04/24 10:41:31;;;;;;;;;;;20.80;36.70;;;;;;5065257;28;19913;-62
2022/04/24 10:44:17;;;;;;;;;;;20.80;36.80;;;;;;5070411;28;19916;-61
2022/04/24 10:46:43;;;;;;;;;;;20.80;36.90;;;;;;5068832;28;19918;-61
2022/04/24 10:49:12;;;;;;;;;;;20.70;37.00;;;;;;5068250;28;19919;-61
2022/04/24 10:51:39;;;;;;;;;;;20.70;37.00;;;;;;5068871;28;20589;-61
2022/04/24 10:54:10;;;;;;;;;;;20.70;37.20;;;;;;5066204;28;20261;-61
2022/04/24 10:56:36;;;;;;;;;;;20.70;37.00;;;;;;5072000;28;19920;-61
2022/04/24 10:59:10;;;;;;;;;;;20.70;37.10;;;;;;5071320;28;20372;-61
2022/04/24 11:01:36;;;;;;;;;;;20.80;37.00;;;;;;5070420;28;19961;-61
2022/04/24 11:04:05;;;;;;;;;;;20.80;36.90;;;;;;5071377;28;20284;-61
2022/04/24 11:06:30;;;;;;;;;;;20.90;36.90;;;;;;5070349;28;19927;-61
2022/04/24 11:09:04;;;;;;;;;;;20.90;37.60;;;;;;5070858;28;19909;-61
2022/04/24 11:11:31;;;;;;;;;;;20.90;37.00;;;;;;5071649;28;20436;-62
2022/04/24 11:13:59;;;;;;;;;;;20.90;37.00;;;;;;5071215;28;19909;-62
2022/04/24 11:16:24;;;;;;;;;;;20.90;37.00;;;;;;5071640;28;19924;-62
2022/04/24 11:18:50;;;;;;;;;;;20.90;37.00;;;;;;5071448;28;20289;-62
2022/04/24 11:21:19;;;;;;;;;;;20.90;37.00;;;;;;5071435;28;19908;-62
2022/04/24 11:23:45;;;;;;;;;;;20.90;37.00;;;;;;5069206;28;19916;-62
2022/04/24 11:26:12;;;;;;;;;;;20.90;36.90;;;;;;5068720;28;19925;-62
2022/04/24 11:28:38;;;;;;;;;;;20.90;36.90;;;;;;5062205;28;19955;-61
2022/04/24 11:31:08;;;;;;;;;;;21.00;37.00;;;;;;5051525;28;19912;-62
2022/04/24 11:33:36;;;;;;;;;;;21.00;37.00;;;;;;5067856;28;20418;-61
2022/04/24 11:36:04;;;;;;;;;;;21.00;37.00;;;;;;5071398;28;19954;-62
2022/04/24 11:38:30;;;;;;;;;;;21.00;37.10;;;;;;5069614;28;20314;-61
2022/04/24 11:40:56;;;;;;;;;;;21.00;37.10;;;;;;5071604;28;19909;-61
2022/04/24 11:43:21;;;;;;;;;;;21.00;37.10;;;;;;5067462;28;19913;-61
2022/04/24 11:51:34;;;;;;;;;;;20.80;37.40;;;;;;5069650;28;19915;-60
2022/04/24 11:54:00;;;;;;;;;;;20.80;37.70;;;;;;5051697;28;19971;-61
2022/04/24 11:56:25;;;;;;;;;;;20.80;37.80;;;;;;5070682;28;19909;-61
2022/04/24 11:58:51;;;;;;;;;;;20.80;38.00;;;;;;5074390;28;19934;-61
2022/04/24 12:01:18;;;;;;;;;;;20.80;38.20;;;;;;5073737;28;20388;-61
2022/04/24 12:03:44;;;;;;;;;;;20.90;38.80;;;;;;5074584;28;19914;-62
2022/04/24 12:06:13;;;;;;;;;;;20.90;38.10;;;;;;5089180;28;20010;-61
2022/04/24 12:08:46;;;;;;;;;;;20.90;38.00;;;;;;5066465;28;20823;-61
2022/04/24 12:11:31;;;;;;;;;;;21.00;38.20;;;;;;5073644;28;20414;-61
2022/04/24 12:14:07;;;;;;;;;;;21.00;38.20;;;;;;5072841;28;19912;-61
2022/04/24 12:16:33;;;;;;;;;;;21.00;38.20;;;;;;5074741;28;19909;-61
2022/04/24 12:18:59;;;;;;;;;;;21.00;38.20;;;;;;5072904;28;19975;-61
2022/04/24 12:21:25;;;;;;;;;;;21.00;38.20;;;;;;5073333;28;19931;-61
2022/04/24 12:23:51;;;;;;;;;;;21.00;38.20;;;;;;5073870;28;19954;-62
2022/04/24 12:26:16;;;;;;;;;;;21.00;38.20;;;;;;5074292;28;19917;-61
2022/04/24 12:28:42;;;;;;;;;;;21.00;38.20;;;;;;5071110;28;19913;-61
2022/04/24 12:31:22;;;;;;;;;;;21.00;38.30;;;;;;5073512;28;19923;-61
2022/04/24 12:33:48;;;;;;;;;;;21.10;38.30;;;;;;5072786;28;19927;-61
2022/04/24 12:36:14;;;;;;;;;;;21.00;38.30;;;;;;5073613;28;20023;-61
2022/04/24 12:38:40;;;;;;;;;;;21.00;38.50;;;;;;5071245;28;20014;-61
2022/04/24 12:41:11;;;;;;;;;;;21.00;38.50;;;;;;5071675;28;19912;-61
2022/04/24 12:43:37;;;;;;;;;;;21.00;38.60;;;;;;5071994;28;19935;-61
2022/04/24 12:46:05;;;;;;;;;;;20.90;38.60;;;;;;5072879;28;19920;-61
2022/04/24 12:48:30;;;;;;;;;;;21.00;38.70;;;;;;5069613;28;20302;-61
2022/04/24 12:50:56;;;;;;;;;;;20.90;38.60;;;;;;5072235;28;19924;-60
2022/04/24 12:53:22;;;;;;;;;;;21.00;38.80;;;;;;5071377;28;19912;-60
2022/04/24 12:55:50;;;;;;;;;;;21.00;38.90;;;;;;5073581;28;19920;-61
2022/04/24 12:58:16;;;;;;;;;;;21.00;39.00;;;;;;5068897;28;19954;-61
2022/04/24 13:00:41;;;;;;;;;;;20.90;38.80;;;;;;5053261;28;19913;-61
2022/04/24 13:03:08;;;;;;;;;;;20.90;38.80;;;;;;5063085;28;19914;-62
2022/04/24 13:05:35;;;;;;;;;;;21.00;38.80;;;;;;5073214;28;20469;-61
2022/04/24 13:08:01;;;;;;;;;;;21.00;38.80;;;;;;5072414;28;19909;-61
2022/04/24 13:10:26;;;;;;;;;;;21.00;38.80;;;;;;5072563;28;19920;-61
2022/04/24 13:12:52;;;;;;;;;;;21.00;38.70;;;;;;5071676;28;19909;-61
2022/04/24 13:15:18;;;;;;;;;;;21.00;38.80;;;;;;5069566;28;19912;-61
2022/04/24 13:20:27;;;;;;;;;;;21.00;38.80;;;;;;5070823;28;19915;-61
2022/04/24 13:22:53;;;;;;;;;;;20.90;39.20;;;;;;5077454;28;20354;-61
2022/04/24 13:25:18;;;;;;;;;;;20.90;39.20;;;;;;5069817;28;19912;-62
2022/04/24 13:27:44;;;;;;;;;;;20.90;39.20;;;;;;5067188;28;19916;-62
2022/04/24 13:30:09;;;;;;;;;;;20.80;39.20;;;;;;5052701;28;19917;-62
2022/04/24 13:32:35;;;;;;;;;;;20.80;39.60;;;;;;5053089;28;19916;-62
2022/04/24 13:35:00;;;;;;;;;;;20.70;39.70;;;;;;5052839;28;19916;-62
2022/04/24 13:40:10;;;;;;;;;;;20.70;39.60;;;;;;5052537;28;19927;-62
2022/04/24 13:42:35;;;;;;;;;;;20.80;39.50;;;;;;5053183;28;19908;-61
2022/04/24 13:45:01;;;;;;;;;;;20.90;39.30;;;;;;5052282;28;20288;-62
2022/04/24 13:47:26;;;;;;;;;;;20.90;39.30;;;;;;5053094;28;20371;-61
2022/04/24 13:49:52;;;;;;;;;;;20.90;39.30;;;;;;5052645;28;19948;-62
2022/04/24 13:52:17;;;;;;;;;;;21.00;39.30;;;;;;5053098;28;19913;-62
2022/04/24 13:54:43;;;;;;;;;;;21.00;39.20;;;;;;5052145;28;19909;-62
2022/04/24 13:57:08;;;;;;;;;;;20.90;39.30;;;;;;5052948;28;19909;-62
2022/04/24 13:59:34;;;;;;;;;;;20.90;39.50;;;;;;5052048;28;19913;-62
2022/04/24 14:02:00;;;;;;;;;;;20.90;39.70;;;;;;5052526;28;19917;-62
2022/04/24 14:04:25;;;;;;;;;;;20.80;40.10;;;;;;5051023;28;19980;-62
2022/04/24 14:06:51;;;;;;;;;;;20.80;40.10;;;;;;5052350;28;19924;-62
2022/04/24 14:09:17;;;;;;;;;;;20.80;40.10;;;;;;5065957;28;19909;-62
2022/04/24 14:11:43;;;;;;;;;;;20.80;40.10;;;;;;5072402;28;20384;-62
2022/04/24 14:14:09;;;;;;;;;;;20.80;40.00;;;;;;5071855;28;19913;-62
2022/04/24 14:16:34;;;;;;;;;;;20.90;40.00;;;;;;5072391;28;19932;-62
2022/04/24 14:19:00;;;;;;;;;;;20.90;39.70;;;;;;5071442;28;20284;-62
2022/04/24 14:21:26;;;;;;;;;;;21.00;39.70;;;;;;5069238;28;19920;-62